Bethel, Oklahoma
Current Conditions -  °F | °C
As of 7:15 PM on Sunday 23 Nov 2014 (Local Time) from K4O4 Reporting Station
Clear Clear  
Wind Chill: 17°   Ceiling: Unl
Heat Index: 17°   Visibility: 10mi
Dew Point:   Wind: 15mph
Humidity: 45%   Direction: 270°W
Pressure: 29.45"   Gusts: 22mph
Location:  34.36°N, 94.84°W
Report Text: K4O4 240115Z AUTO 27013G19KT 10SM CLR 17/05 A2945 RMK AO2
Loading
Personal Weather Stations






























Interactive Weather Map New forecast layout! Learn more

10-Day Weather Forecast

Advertisements
Track Severe Weather on mobile